If you wish to contribute or participate in the discussions about articles you are invited to join SKYbrary as a registered user

 Actions

Deering Airport

From SKYbrary Wiki

PADE
Airport
ICAO: PADE – IATA: DRG
Summary
Name Deering Airport
Region North America
Territory Alaska US.gif
Location , Alaska
Serving Deering
Elevation 6.401 m
21 ft
21 ft6.401 m
Type medium airport
Coordinates 66° 4' 10.56" N, 162° 45' 57.60" W
Runways
Designator Length Width Surface ROPS
2/20 1006 m3,300.525 ft
23 m75.459 ft
GVL /
11/29 805 m2,641.076 ft
23 m75.459 ft
GVL /


METAR
Observation PADE 222204Z AUTO 00000KT SCT014 BKN029 M03/M04 A2988 RMK AO2 T10331044 TSNO $
Station Deering, Deering/New Airport
Date/Time 22 October 2019 22:04:00
Wind direction
Wind speed 00 kts
Lowest cloud amount scattered clouds
Temperature
Dew point
Humidity 92%
QNH hPa
Weather condition n/a